Time;durP1;ratioP1;P1;durP2;ratioP2;P2;SDS_P1;SDS_P2;PMS_P1;PMS_P2;Temp;Humidity;BMP_temperature;BMP_pressure;BME280_temperature;BME280_humidity;BME280_pressure;Samples;Min_cycle;Max_cycle;Signal;HPM_P1;HPM_P2
2020/12/26 00:00:56;;;;;;;;;;;;;;;;;;5065436;28;20411;-70
2020/12/26 00:03:23;;;;;;;;;;;;;;;;;;5069481;28;20011;-68
2020/12/26 00:05:49;;;;;;;;;;;;;;;;;;5074368;28;19924;-69
2020/12/26 00:08:16;;;;;;;;;;;;;;;;;;5071217;28;20390;-68
2020/12/26 00:10:42;;;;;;;;;;;;;;;;;;5072280;28;19931;-69
2020/12/26 00:13:09;;;;;;;;;;;;;;;;;;5074086;28;19925;-68
2020/12/26 00:15:35;;;;;;;;;;;;;;;;;;5069700;28;20012;-69
2020/12/26 00:18:02;;;;;;;;;;;;;;;;;;5072082;28;20018;-69
2020/12/26 00:20:28;;;;;;;;;;;;;;;;;;5075132;28;19971;-69
2020/12/26 00:22:54;;;;;;;;;;;;;;;;;;5072927;28;19925;-69
2020/12/26 00:25:21;;;;;;;;;;;;;;;;;;5073793;28;19928;-69
2020/12/26 00:27:47;;;;;;;;;;;;;;;;;;5072651;28;19924;-70
2020/12/26 00:30:14;;;;;;;;;;;;;;;;;;5068827;28;20024;-68
2020/12/26 00:32:40;;;;;;;;;;;;;;;;;;5069598;28;19964;-68
2020/12/26 00:35:07;;;;;;;;;;;;;;;;;;5071578;28;19924;-68
2020/12/26 00:37:33;;;;;;;;;;;;;;;;;;5065868;28;20396;-69
2020/12/26 00:40:00;;;;;;;;;;;;;;;;;;5064536;28;20015;-69
2020/12/26 00:42:26;;;;;;;;;;;;;;;;;;5063126;28;20019;-68
2020/12/26 00:44:53;;;;;;;;;;;;;;;;;;5070204;28;19925;-68
2020/12/26 00:47:19;;;;;;;;;;;;;;;;;;5066894;28;19924;-68
2020/12/26 00:49:45;;;;;;;;;;;;;;;;;;5066600;28;19936;-68
2020/12/26 00:52:12;;;;;;;;;;;;;;;;;;5070388;28;19967;-70
2020/12/26 00:54:38;;;;;;;;;;;;;;;;;;5073563;28;20011;-68
2020/12/26 00:57:05;;;;;;;;;;;;;;;;;;5065722;28;20015;-68
2020/12/26 00:59:31;;;;;;;;;;;;;;;;;;5072961;28;19932;-66
2020/12/26 01:01:58;;;;;;;;;;;;;;;;;;5070476;28;19931;-68
2020/12/26 01:04:24;;;;;;;;;;;;;;;;;;5069830;28;20068;-69
2020/12/26 01:06:51;;;;;;;;;;;;;;;;;;5071847;28;19931;-69
2020/12/26 01:09:17;;;;;;;;;;;;;;;;;;5066669;28;19924;-69
2020/12/26 01:11:43;;;;;;;;;;;;;;;;;;5065614;28;19924;-68
2020/12/26 01:14:10;;;;;;;;;;;;;;;;;;5071328;28;19935;-67
2020/12/26 01:16:36;;;;;;;;;;;;;;;;;;5062837;28;19928;-68
2020/12/26 01:19:03;;;;;;;;;;;;;;;;;;5061112;28;19933;-69
2020/12/26 01:21:29;;;;;;;;;;;;;;;;;;5070244;28;19971;-69
2020/12/26 01:23:56;;;;;;;;;;;;;;;;;;5071286;28;20454;-68
2020/12/26 01:26:22;;;;;;;;;;;;;;;;;;5071042;28;19948;-69
2020/12/26 01:28:48;;;;;;;;;;;;;;;;;;5065694;28;19941;-69
2020/12/26 01:31:15;;;;;;;;;;;;;;;;;;5071775;28;20317;-68
2020/12/26 01:33:41;;;;;;;;;;;;;;;;;;5073457;28;19956;-69
2020/12/26 01:36:08;;;;;;;;;;;;;;;;;;5073545;28;19925;-69
2020/12/26 01:38:34;;;;;;;;;;;;;;;;;;5073112;28;19930;-69
2020/12/26 01:41:01;;;;;;;;;;;;;;;;;;5073528;28;19924;-69
2020/12/26 01:43:27;;;;;;;;;;;;;;;;;;5086596;28;19936;-69
2020/12/26 01:45:54;;;;;;;;;;;;;;;;;;5084971;28;19955;-68
2020/12/26 01:48:20;;;;;;;;;;;;;;;;;;5078132;28;20011;-69
2020/12/26 01:50:47;;;;;;;;;;;;;;;;;;5073135;28;19931;-68
2020/12/26 01:53:13;;;;;;;;;;;;;;;;;;5080846;28;19921;-71
2020/12/26 01:55:40;;;;;;;;;;;;;;;;;;5091083;28;19964;-70
2020/12/26 01:58:07;;;;;;;;;;;;;;;;;;5088042;28;19939;-70
2020/12/26 02:00:33;;;;;;;;;;;;;;;;;;5089035;28;19980;-70
2020/12/26 02:03:00;;;;;;;;;;;;;;;;;;5076646;28;20029;-69
2020/12/26 02:05:26;;;;;;;;;;;;;;;;;;5061313;28;20310;-69
2020/12/26 02:07:53;;;;;;;;;;;;;;;;;;5071704;28;20027;-69
2020/12/26 02:10:19;;;;;;;;;;;;;;;;;;5070711;28;20284;-69
2020/12/26 02:12:47;;;;;;;;;;;;;;;;;;5068170;28;20386;-69
2020/12/26 02:15:14;;;;;;;;;;;;;;;;;;5063895;28;19936;-69
2020/12/26 02:17:40;;;;;;;;;;;;;;;;;;5066638;28;19998;-69
2020/12/26 02:20:06;;;;;;;;;;;;;;;;;;5069484;28;19932;-70
2020/12/26 02:22:33;;;;;;;;;;;;;;;;;;5067182;28;19928;-69
2020/12/26 02:24:59;;;;;;;;;;;;;;;;;;5065024;28;19929;-69
2020/12/26 02:27:26;;;;;;;;;;;;;;;;;;5068681;28;20007;-69
2020/12/26 02:29:52;;;;;;;;;;;;;;;;;;5069296;28;19924;-69
2020/12/26 02:32:19;;;;;;;;;;;;;;;;;;5068753;28;19931;-68
2020/12/26 02:34:45;;;;;;;;;;;;;;;;;;5067874;28;19981;-69
2020/12/26 02:37:11;;;;;;;;;;;;;;;;;;5059770;28;19924;-69
2020/12/26 02:39:38;;;;;;;;;;;;;;;;;;5064853;28;20382;-69
2020/12/26 02:42:04;;;;;;;;;;;;;;;;;;5062468;28;20359;-68
2020/12/26 02:44:31;;;;;;;;;;;;;;;;;;5068233;28;20239;-68
2020/12/26 02:46:57;;;;;;;;;;;;;;;;;;5069120;28;20019;-69
2020/12/26 02:49:24;;;;;;;;;;;;;;;;;;5066609;28;19924;-69
2020/12/26 02:51:50;;;;;;;;;;;;;;;;;;5062249;28;19928;-69
2020/12/26 02:54:17;;;;;;;;;;;;;;;;;;5066087;28;19977;-69
2020/12/26 02:56:43;;;;;;;;;;;;;;;;;;5065505;28;20011;-68
2020/12/26 02:59:09;;;;;;;;;;;;;;;;;;5063148;28;19935;-69
2020/12/26 03:01:36;;;;;;;;;;;;;;;;;;5063268;28;20139;-69
2020/12/26 03:04:02;;;;;;;;;;;;;;;;;;5068888;28;19978;-69
2020/12/26 03:06:29;;;;;;;;;;;;;;;;;;5060529;28;19924;-70
2020/12/26 03:08:55;;;;;;;;;;;;;;;;;;5063006;28;20477;-70
2020/12/26 03:11:22;;;;;;;;;;;;;;;;;;5067174;28;20479;-71
2020/12/26 03:13:48;;;;;;;;;;;;;;;;;;5066795;28;19950;-70
2020/12/26 03:16:15;;;;;;;;;;;;;;;;;;5068845;28;19931;-70
2020/12/26 03:18:41;;;;;;;;;;;;;;;;;;5063551;28;19928;-70
2020/12/26 03:21:08;;;;;;;;;;;;;;;;;;5069543;28;19924;-70
2020/12/26 03:23:34;;;;;;;;;;;;;;;;;;5070220;28;19957;-69
2020/12/26 03:26:01;;;;;;;;;;;;;;;;;;5062722;28;19925;-69
2020/12/26 03:28:27;;;;;;;;;;;;;;;;;;5065392;28;19971;-70
2020/12/26 03:30:54;;;;;;;;;;;;;;;;;;5069132;28;20302;-69
2020/12/26 03:33:20;;;;;;;;;;;;;;;;;;5064742;28;19928;-69
2020/12/26 03:35:47;;;;;;;;;;;;;;;;;;5070696;28;20368;-70
2020/12/26 03:38:13;;;;;;;;;;;;;;;;;;5066094;28;20053;-69
2020/12/26 03:40:40;;;;;;;;;;;;;;;;;;5062905;28;20015;-69
2020/12/26 03:43:06;;;;;;;;;;;;;;;;;;5064581;28;19958;-70
2020/12/26 03:45:32;;;;;;;;;;;;;;;;;;5063798;28;19928;-68
2020/12/26 03:47:59;;;;;;;;;;;;;;;;;;5067877;28;19940;-70
2020/12/26 03:50:25;;;;;;;;;;;;;;;;;;5069400;28;19970;-69
2020/12/26 03:52:52;;;;;;;;;;;;;;;;;;5067993;28;19943;-69
2020/12/26 03:55:18;;;;;;;;;;;;;;;;;;5068386;28;19939;-69
2020/12/26 03:57:45;;;;;;;;;;;;;;;;;;5065533;28;19931;-70
2020/12/26 04:00:11;;;;;;;;;;;;;;;;;;5071330;28;19936;-70
2020/12/26 04:02:38;;;;;;;;;;;;;;;;;;5063630;28;20309;-69
2020/12/26 04:05:04;;;;;;;;;;;;;;;;;;5067877;28;20447;-69
2020/12/26 04:07:30;;;;;;;;;;;;;;;;;;5065711;28;20317;-69
2020/12/26 04:09:57;;;;;;;;;;;;;;;;;;5068090;28;20349;-69
2020/12/26 04:12:23;;;;;;;;;;;;;;;;;;5066224;28;20424;-69
2020/12/26 04:14:50;;;;;;;;;;;;;;;;;;5070290;28;20056;-69
2020/12/26 04:17:16;;;;;;;;;;;;;;;;;;5063566;28;20398;-69
2020/12/26 04:19:43;;;;;;;;;;;;;;;;;;5067070;28;20374;-69
2020/12/26 04:22:09;;;;;;;;;;;;;;;;;;5061952;28;20383;-68
2020/12/26 04:24:36;;;;;;;;;;;;;;;;;;5071754;28;20020;-68
2020/12/26 04:27:02;;;;;;;;;;;;;;;;;;5068640;28;20019;-69
2020/12/26 04:29:28;;;;;;;;;;;;;;;;;;5067404;28;19924;-68
2020/12/26 04:31:55;;;;;;;;;;;;;;;;;;5064370;28;19924;-69
2020/12/26 04:34:21;;;;;;;;;;;;;;;;;;5068419;28;20004;-69
2020/12/26 04:36:48;;;;;;;;;;;;;;;;;;5064625;28;20023;-69
2020/12/26 04:39:14;;;;;;;;;;;;;;;;;;5068126;28;19925;-68
2020/12/26 04:41:41;;;;;;;;;;;;;;;;;;5063785;28;19995;-68
2020/12/26 04:44:07;;;;;;;;;;;;;;;;;;5070294;28;20337;-68
2020/12/26 04:46:34;;;;;;;;;;;;;;;;;;5064321;28;19925;-67
2020/12/26 04:49:00;;;;;;;;;;;;;;;;;;5067599;28;19934;-69
2020/12/26 04:51:26;;;;;;;;;;;;;;;;;;5065141;28;20597;-68
2020/12/26 04:53:53;;;;;;;;;;;;;;;;;;5068584;28;19946;-69
2020/12/26 04:56:19;;;;;;;;;;;;;;;;;;5073516;28;19929;-69
2020/12/26 04:58:46;;;;;;;;;;;;;;;;;;5071319;28;19932;-69
2020/12/26 05:01:13;;;;;;;;;;;;;;;;;;5063460;28;19931;-70
2020/12/26 05:03:40;;;;;;;;;;;;;;;;;;5107508;23;19933;-66
2020/12/26 05:06:06;;;;;;;;;;;;;;;;;;5071082;28;20316;-67
2020/12/26 05:08:33;;;;;;;;;;;;;;;;;;5071553;28;20320;-66
2020/12/26 05:10:59;;;;;;;;;;;;;;;;;;5072561;28;20390;-66
2020/12/26 05:13:26;;;;;;;;;;;;;;;;;;5072352;28;19924;-66
2020/12/26 05:15:52;;;;;;;;;;;;;;;;;;5067564;28;19931;-67
2020/12/26 05:18:18;;;;;;;;;;;;;;;;;;5058233;28;19924;-66
2020/12/26 05:20:45;;;;;;;;;;;;;;;;;;5067823;28;20294;-67
2020/12/26 05:23:11;;;;;;;;;;;;;;;;;;5063560;28;20270;-67
2020/12/26 05:25:38;;;;;;;;;;;;;;;;;;5064177;28;20351;-66
2020/12/26 05:28:04;;;;;;;;;;;;;;;;;;5061875;28;20369;-66
2020/12/26 05:30:31;;;;;;;;;;;;;;;;;;5065994;28;20401;-66
2020/12/26 05:32:57;;;;;;;;;;;;;;;;;;5068643;28;19950;-67
2020/12/26 05:35:23;;;;;;;;;;;;;;;;;;5063599;28;19936;-67
2020/12/26 05:37:50;;;;;;;;;;;;;;;;;;5063742;28;19932;-65
2020/12/26 05:40:16;;;;;;;;;;;;;;;;;;5068120;28;19925;-66
2020/12/26 05:42:43;;;;;;;;;;;;;;;;;;5067813;28;19940;-67
2020/12/26 05:45:09;;;;;;;;;;;;;;;;;;5069443;28;19925;-66
2020/12/26 05:47:36;;;;;;;;;;;;;;;;;;5071630;28;19924;-66
2020/12/26 05:50:02;;;;;;;;;;;;;;;;;;5069105;28;19928;-65
2020/12/26 05:52:29;;;;;;;;;;;;;;;;;;5061030;28;20061;-66
2020/12/26 05:54:55;;;;;;;;;;;;;;;;;;5066456;28;20301;-67
2020/12/26 05:57:21;;;;;;;;;;;;;;;;;;5071119;28;20282;-66
2020/12/26 05:59:48;;;;;;;;;;;;;;;;;;5062475;28;20398;-67
2020/12/26 06:02:14;;;;;;;;;;;;;;;;;;5061679;28;19931;-66
2020/12/26 06:04:41;;;;;;;;;;;;;;;;;;5068858;28;19935;-66
2020/12/26 06:07:07;;;;;;;;;;;;;;;;;;5060639;28;19932;-66
2020/12/26 06:09:34;;;;;;;;;;;;;;;;;;5055763;28;19958;-66
2020/12/26 06:12:00;;;;;;;;;;;;;;;;;;5066523;28;19943;-66
2020/12/26 06:14:26;;;;;;;;;;;;;;;;;;5063396;28;19930;-66
2020/12/26 06:16:53;;;;;;;;;;;;;;;;;;5070030;28;19928;-65
2020/12/26 06:19:20;;;;;;;;;;;;;;;;;;5064551;28;20297;-66
2020/12/26 06:21:46;;;;;;;;;;;;;;;;;;5069849;28;19924;-66
2020/12/26 06:24:12;;;;;;;;;;;;;;;;;;5070072;28;19933;-67
2020/12/26 06:26:39;;;;;;;;;;;;;;;;;;5065144;28;19925;-67
2020/12/26 06:29:05;;;;;;;;;;;;;;;;;;5067453;28;20012;-66
2020/12/26 06:31:32;;;;;;;;;;;;;;;;;;5066062;28;19928;-66
2020/12/26 06:33:58;;;;;;;;;;;;;;;;;;5068203;28;20392;-66
2020/12/26 06:36:25;;;;;;;;;;;;;;;;;;5062050;28;19932;-66
2020/12/26 06:38:51;;;;;;;;;;;;;;;;;;5065767;28;19925;-66
2020/12/26 06:41:18;;;;;;;;;;;;;;;;;;5060381;28;19928;-66
2020/12/26 06:43:44;;;;;;;;;;;;;;;;;;5070924;28;19924;-66
2020/12/26 06:46:11;;;;;;;;;;;;;;;;;;5070163;28;20027;-66
2020/12/26 06:48:37;;;;;;;;;;;;;;;;;;5066424;28;19928;-66
2020/12/26 06:51:03;;;;;;;;;;;;;;;;;;5068326;28;19943;-69
2020/12/26 06:53:30;;;;;;;;;;;;;;;;;;5064537;28;19940;-66
2020/12/26 06:55:56;;;;;;;;;;;;;;;;;;5060963;28;19924;-65
2020/12/26 06:58:23;;;;;;;;;;;;;;;;;;5068103;28;19924;-66
2020/12/26 07:00:49;;;;;;;;;;;;;;;;;;5059358;28;21406;-67
2020/12/26 07:03:16;;;;;;;;;;;;;;;;;;5060385;28;19924;-67
2020/12/26 07:05:42;;;;;;;;;;;;;;;;;;5058840;28;19924;-67
2020/12/26 07:08:08;;;;;;;;;;;;;;;;;;5055884;28;19925;-66
2020/12/26 07:10:35;;;;;;;;;;;;;;;;;;5063124;28;19954;-66
2020/12/26 07:13:01;;;;;;;;;;;;;;;;;;5069700;28;19982;-67
2020/12/26 07:15:28;;;;;;;;;;;;;;;;;;5074222;28;19928;-67
2020/12/26 07:17:54;;;;;;;;;;;;;;;;;;5065918;28;19948;-67
2020/12/26 07:20:20;;;;;;;;;;;;;;;;;;5070274;28;20139;-68
2020/12/26 07:22:47;;;;;;;;;;;;;;;;;;5065008;28;19925;-66
2020/12/26 07:25:13;;;;;;;;;;;;;;;;;;5070792;28;20425;-67
2020/12/26 07:27:40;;;;;;;;;;;;;;;;;;5066904;28;20394;-67
2020/12/26 07:30:06;;;;;;;;;;;;;;;;;;5061177;28;19932;-67
2020/12/26 07:32:33;;;;;;;;;;;;;;;;;;5065158;28;19953;-67
2020/12/26 07:34:59;;;;;;;;;;;;;;;;;;5063084;28;19925;-67
2020/12/26 07:37:25;;;;;;;;;;;;;;;;;;5069252;28;19925;-67
2020/12/26 07:39:52;;;;;;;;;;;;;;;;;;5070188;28;19925;-67
2020/12/26 07:42:18;;;;;;;;;;;;;;;;;;5065216;28;19977;-67
2020/12/26 07:44:45;;;;;;;;;;;;;;;;;;5068813;28;19930;-68
2020/12/26 07:47:12;;;;;;;;;;;;;;;;;;5061427;28;19925;-67
2020/12/26 07:49:38;;;;;;;;;;;;;;;;;;5060565;28;19924;-67
2020/12/26 07:52:04;;;;;;;;;;;;;;;;;;5066398;28;20019;-67
2020/12/26 07:54:31;;;;;;;;;;;;;;;;;;5063213;28;19929;-68
2020/12/26 07:56:57;;;;;;;;;;;;;;;;;;5065221;28;19924;-67
2020/12/26 07:59:24;;;;;;;;;;;;;;;;;;5060744;28;19970;-68
2020/12/26 08:01:50;;;;;;;;;;;;;;;;;;5056903;28;19932;-68
2020/12/26 08:04:17;;;;;;;;;;;;;;;;;;5062864;28;19954;-67
2020/12/26 08:06:43;;;;;;;;;;;;;;;;;;5064139;28;19944;-67
2020/12/26 08:09:10;;;;;;;;;;;;;;;;;;5058815;28;19929;-68
2020/12/26 08:11:36;;;;;;;;;;;;;;;;;;5070755;28;19935;-67
2020/12/26 08:14:02;;;;;;;;;;;;;;;;;;5068201;28;20023;-67
2020/12/26 08:16:29;;;;;;;;;;;;;;;;;;5068625;28;19924;-67
2020/12/26 08:18:55;;;;;;;;;;;;;;;;;;5064616;28;19993;-67
2020/12/26 08:21:22;;;;;;;;;;;;;;;;;;5069842;28;19925;-68
2020/12/26 08:23:48;;;;;;;;;;;;;;;;;;5065153;28;19931;-67
2020/12/26 08:26:15;;;;;;;;;;;;;;;;;;5060350;28;19928;-68
2020/12/26 08:28:41;;;;;;;;;;;;;;;;;;5071399;28;20366;-68
2020/12/26 08:31:08;;;;;;;;;;;;;;;;;;5063382;28;19928;-67
2020/12/26 08:33:34;;;;;;;;;;;;;;;;;;5070632;28;20291;-67
2020/12/26 08:36:01;;;;;;;;;;;;;;;;;;5067956;28;19932;-67
2020/12/26 08:38:27;;;;;;;;;;;;;;;;;;5063067;28;20390;-68
2020/12/26 08:40:54;;;;;;;;;;;;;;;;;;5064820;28;20346;-67
2020/12/26 08:43:20;;;;;;;;;;;;;;;;;;5070076;28;19933;-68
2020/12/26 08:45:47;;;;;;;;;;;;;;;;;;5067659;28;19970;-67
2020/12/26 08:48:13;;;;;;;;;;;;;;;;;;5064862;28;19924;-68
2020/12/26 08:50:40;;;;;;;;;;;;;;;;;;5068472;28;19928;-68
2020/12/26 08:53:06;;;;;;;;;;;;;;;;;;5061889;28;19924;-67
2020/12/26 08:55:33;;;;;;;;;;;;;;;;;;5067344;28;19924;-67
2020/12/26 08:57:59;;;;;;;;;;;;;;;;;;5061997;28;19925;-67
2020/12/26 09:00:26;;;;;;;;;;;;;;;;;;5072317;28;19954;-68
2020/12/26 09:02:53;;;;;;;;;;;;;;;;;;5068894;28;19925;-68
2020/12/26 09:05:19;;;;;;;;;;;;;;;;;;5065083;28;20562;-70
2020/12/26 09:07:46;;;;;;;;;;;;;;;;;;5069689;28;19930;-69
2020/12/26 09:10:12;;;;;;;;;;;;;;;;;;5065014;28;20396;-68
2020/12/26 09:12:39;;;;;;;;;;;;;;;;;;5070300;28;19932;-66
2020/12/26 09:15:05;;;;;;;;;;;;;;;;;;5070373;28;20313;-67
2020/12/26 09:17:32;;;;;;;;;;;;;;;;;;5066703;28;19928;-67
2020/12/26 09:19:58;;;;;;;;;;;;;;;;;;5068976;28;20333;-68
2020/12/26 09:22:25;;;;;;;;;;;;;;;;;;5070488;28;19987;-68
2020/12/26 09:24:51;;;;;;;;;;;;;;;;;;5065195;28;19931;-67
2020/12/26 09:27:18;;;;;;;;;;;;;;;;;;5066300;28;20023;-67
2020/12/26 09:29:44;;;;;;;;;;;;;;;;;;5068925;28;19925;-67
2020/12/26 09:32:11;;;;;;;;;;;;;;;;;;5062238;28;20400;-67
2020/12/26 09:34:37;;;;;;;;;;;;;;;;;;5060549;28;19924;-67
2020/12/26 09:37:04;;;;;;;;;;;;;;;;;;5064013;28;20294;-69
2020/12/26 09:39:30;;;;;;;;;;;;;;;;;;5063587;28;19982;-67
2020/12/26 09:41:57;;;;;;;;;;;;;;;;;;5065349;28;19947;-68
2020/12/26 09:44:23;;;;;;;;;;;;;;;;;;5065389;28;19932;-69
2020/12/26 09:46:50;;;;;;;;;;;;;;;;;;5066877;28;19943;-67
2020/12/26 09:49:16;;;;;;;;;;;;;;;;;;5057081;28;19924;-68
2020/12/26 09:51:43;;;;;;;;;;;;;;;;;;5061656;28;19935;-67
2020/12/26 09:54:09;;;;;;;;;;;;;;;;;;5067004;28;20047;-68
2020/12/26 09:56:36;;;;;;;;;;;;;;;;;;5062405;28;20261;-68
2020/12/26 09:59:02;;;;;;;;;;;;;;;;;;5067633;28;19932;-68
2020/12/26 10:01:29;;;;;;;;;;;;;;;;;;5070607;28;19960;-67
2020/12/26 10:03:55;;;;;;;;;;;;;;;;;;5060743;28;20278;-69
2020/12/26 10:06:22;;;;;;;;;;;;;;;;;;5061104;28;19925;-67
2020/12/26 10:08:48;;;;;;;;;;;;;;;;;;5062833;28;19924;-70
2020/12/26 10:11:15;;;;;;;;;;;;;;;;;;5062424;28;19929;-68
2020/12/26 10:13:41;;;;;;;;;;;;;;;;;;5069473;28;19925;-66
2020/12/26 10:16:08;;;;;;;;;;;;;;;;;;5069156;28;20105;-68
2020/12/26 10:18:34;;;;;;;;;;;;;;;;;;5061931;28;20393;-67
2020/12/26 10:21:01;;;;;;;;;;;;;;;;;;5071205;28;19924;-68
2020/12/26 10:23:28;;;;;;;;;;;;;;;;;;5067835;28;19924;-68
2020/12/26 10:25:54;;;;;;;;;;;;;;;;;;5065863;28;19930;-67
2020/12/26 10:28:21;;;;;;;;;;;;;;;;;;5063411;28;19928;-67
2020/12/26 10:30:47;;;;;;;;;;;;;;;;;;5067472;28;20030;-68
2020/12/26 10:33:14;;;;;;;;;;;;;;;;;;5061625;28;20003;-67
2020/12/26 10:35:40;;;;;;;;;;;;;;;;;;5065699;28;20015;-67
2020/12/26 10:38:07;;;;;;;;;;;;;;;;;;5067466;28;19939;-69
2020/12/26 10:40:33;;;;;;;;;;;;;;;;;;5066433;28;19925;-69
2020/12/26 10:43:00;;;;;;;;;;;;;;;;;;5069553;28;20398;-68
2020/12/26 10:45:26;;;;;;;;;;;;;;;;;;5069579;28;19928;-68
2020/12/26 10:47:52;;;;;;;;;;;;;;;;;;5068145;28;20378;-70
2020/12/26 10:50:19;;;;;;;;;;;;;;;;;;5060950;28;19931;-69
2020/12/26 10:52:45;;;;;;;;;;;;;;;;;;5062259;28;19932;-69
2020/12/26 10:55:12;;;;;;;;;;;;;;;;;;5067496;28;19932;-69
2020/12/26 10:57:40;;;;;;;;;;;;;;;;;;5066529;28;20200;-69
2020/12/26 11:00:06;;;;;;;;;;;;;;;;;;5054095;28;20070;-69
2020/12/26 11:02:33;;;;;;;;;;;;;;;;;;5060123;28;19959;-69
2020/12/26 11:04:59;;;;;;;;;;;;;;;;;;5071288;22;20008;-65
2020/12/26 11:07:26;;;;;;;;;;;;;;;;;;5047899;28;20027;-64
2020/12/26 11:09:52;;;;;;;;;;;;;;;;;;5048744;28;19974;-64
2020/12/26 11:12:19;;;;;;;;;;;;;;;;;;5049162;28;19933;-66
2020/12/26 11:14:45;;;;;;;;;;;;;;;;;;5046830;28;19925;-65
2020/12/26 11:17:13;;;;;;;;;;;;;;;;;;5047161;28;19925;-64
2020/12/26 11:19:40;;;;;;;;;;;;;;;;;;5044417;28;19954;-64
2020/12/26 11:22:06;;;;;;;;;;;;;;;;;;5048468;28;19925;-63
2020/12/26 11:24:32;;;;;;;;;;;;;;;;;;5048999;28;19932;-65
2020/12/26 11:26:59;;;;;;;;;;;;;;;;;;5047528;28;20382;-66
2020/12/26 11:29:26;;;;;;;;;;;;;;;;;;5048899;28;20365;-65
2020/12/26 11:31:52;;;;;;;;;;;;;;;;;;5046035;28;19932;-63
2020/12/26 11:34:19;;;;;;;;;;;;;;;;;;5045951;28;19936;-64
2020/12/26 11:36:45;;;;;;;;;;;;;;;;;;5048584;28;20661;-64
2020/12/26 11:39:12;;;;;;;;;;;;;;;;;;5047125;28;19971;-65
2020/12/26 11:41:38;;;;;;;;;;;;;;;;;;5050264;28;19925;-64
2020/12/26 11:44:05;;;;;;;;;;;;;;;;;;5049103;28;19932;-64
2020/12/26 11:46:31;;;;;;;;;;;;;;;;;;5048881;28;20272;-71
2020/12/26 11:48:58;;;;;;;;;;;;;;;;;;5047231;28;19932;-67
2020/12/26 11:51:24;;;;;;;;;;;;;;;;;;5044819;28;19929;-67
2020/12/26 11:53:51;;;;;;;;;;;;;;;;;;5044014;28;19925;-65
2020/12/26 11:56:17;;;;;;;;;;;;;;;;;;5046698;28;19925;-67
2020/12/26 11:58:44;;;;;;;;;;;;;;;;;;5046272;28;19925;-65
2020/12/26 12:01:10;;;;;;;;;;;;;;;;;;5049493;28;19931;-65
2020/12/26 12:03:37;;;;;;;;;;;;;;;;;;5050136;28;19928;-66
2020/12/26 12:06:03;;;;;;;;;;;;;;;;;;5049005;28;19944;-65
2020/12/26 12:08:30;;;;;;;;;;;;;;;;;;5048276;28;20404;-65
2020/12/26 12:10:56;;;;;;;;;;;;;;;;;;5051030;28;19925;-65
2020/12/26 12:13:23;;;;;;;;;;;;;;;;;;5048884;28;20435;-64
2020/12/26 12:15:49;;;;;;;;;;;;;;;;;;5050351;28;19931;-64
2020/12/26 12:18:16;;;;;;;;;;;;;;;;;;5042961;28;20235;-65
2020/12/26 12:20:42;;;;;;;;;;;;;;;;;;5051317;28;19983;-65
2020/12/26 12:23:09;;;;;;;;;;;;;;;;;;5050587;28;19939;-65
2020/12/26 12:25:35;;;;;;;;;;;;;;;;;;5051735;28;19947;-66
2020/12/26 12:28:02;;;;;;;;;;;;;;;;;;5049738;28;19924;-63
2020/12/26 12:30:28;;;;;;;;;;;;;;;;;;5051538;28;19968;-64
2020/12/26 12:32:55;;;;;;;;;;;;;;;;;;5052169;28;19928;-65
2020/12/26 12:35:21;;;;;;;;;;;;;;;;;;5048693;28;19925;-65
2020/12/26 12:37:48;;;;;;;;;;;;;;;;;;5051580;28;20373;-65
2020/12/26 12:40:14;;;;;;;;;;;;;;;;;;5045504;28;19939;-64
2020/12/26 12:42:41;;;;;;;;;;;;;;;;;;5045360;28;19925;-64
2020/12/26 12:45:07;;;;;;;;;;;;;;;;;;5051479;28;20321;-66
2020/12/26 12:47:34;;;;;;;;;;;;;;;;;;5044602;28;19925;-64
2020/12/26 12:50:00;;;;;;;;;;;;;;;;;;5044133;28;19975;-65
2020/12/26 12:52:27;;;;;;;;;;;;;;;;;;5049068;28;19925;-64
2020/12/26 12:54:53;;;;;;;;;;;;;;;;;;5050300;28;19925;-65
2020/12/26 12:57:20;;;;;;;;;;;;;;;;;;5051687;28;19924;-65
2020/12/26 12:59:46;;;;;;;;;;;;;;;;;;5048336;28;20347;-65
2020/12/26 13:02:13;;;;;;;;;;;;;;;;;;5049033;28;19986;-65
2020/12/26 13:04:39;;;;;;;;;;;;;;;;;;5053003;28;20176;-65
2020/12/26 13:07:06;;;;;;;;;;;;;;;;;;5047606;28;19928;-65
2020/12/26 13:09:32;;;;;;;;;;;;;;;;;;5049986;28;19942;-64
2020/12/26 13:11:59;;;;;;;;;;;;;;;;;;5052118;28;19958;-67
2020/12/26 13:14:25;;;;;;;;;;;;;;;;;;5049321;28;20042;-65
2020/12/26 13:16:52;;;;;;;;;;;;;;;;;;5047270;28;19933;-65
2020/12/26 13:19:18;;;;;;;;;;;;;;;;;;5050638;28;19924;-64
2020/12/26 13:21:45;;;;;;;;;;;;;;;;;;5052681;28;20210;-65
2020/12/26 13:24:11;;;;;;;;;;;;;;;;;;5050386;28;19968;-65
2020/12/26 13:26:38;;;;;;;;;;;;;;;;;;5053887;28;20417;-65
2020/12/26 13:29:04;;;;;;;;;;;;;;;;;;5052373;28;19932;-65
2020/12/26 13:31:31;;;;;;;;;;;;;;;;;;5050670;28;19979;-66
2020/12/26 13:33:57;;;;;;;;;;;;;;;;;;5050275;28;19929;-65
2020/12/26 13:36:24;;;;;;;;;;;;;;;;;;5046681;28;19932;-65
2020/12/26 13:38:50;;;;;;;;;;;;;;;;;;5049632;28;19929;-65
2020/12/26 13:41:17;;;;;;;;;;;;;;;;;;5047219;28;20015;-65
2020/12/26 13:43:43;;;;;;;;;;;;;;;;;;5049039;28;19925;-65
2020/12/26 13:46:10;;;;;;;;;;;;;;;;;;5051341;28;19932;-68
2020/12/26 13:48:36;;;;;;;;;;;;;;;;;;5051578;28;20398;-65
2020/12/26 13:51:03;;;;;;;;;;;;;;;;;;5051651;28;19924;-67
2020/12/26 13:53:29;;;;;;;;;;;;;;;;;;5049776;28;19925;-69
2020/12/26 13:55:56;;;;;;;;;;;;;;;;;;5051522;28;19925;-65
2020/12/26 13:58:22;;;;;;;;;;;;;;;;;;5041284;28;19925;-65
2020/12/26 14:00:49;;;;;;;;;;;;;;;;;;5050386;28;20020;-65
2020/12/26 14:03:15;;;;;;;;;;;;;;;;;;5051230;28;19941;-65
2020/12/26 14:05:42;;;;;;;;;;;;;;;;;;5050722;28;19933;-65
2020/12/26 14:08:08;;;;;;;;;;;;;;;;;;5045055;28;19968;-65
2020/12/26 14:10:34;;;;;;;;;;;;;;;;;;5051924;28;19928;-64
2020/12/26 14:13:01;;;;;;;;;;;;;;;;;;5043037;28;19925;-65
2020/12/26 14:15:28;;;;;;;;;;;;;;;;;;5051576;28;20294;-65
2020/12/26 14:17:54;;;;;;;;;;;;;;;;;;5049852;28;19995;-65
2020/12/26 14:20:20;;;;;;;;;;;;;;;;;;5053800;28;20291;-65
2020/12/26 14:22:47;;;;;;;;;;;;;;;;;;5049269;28;19939;-65
2020/12/26 14:25:13;;;;;;;;;;;;;;;;;;5051409;28;20360;-64
2020/12/26 14:27:40;;;;;;;;;;;;;;;;;;5049450;28;19998;-65
2020/12/26 14:30:06;;;;;;;;;;;;;;;;;;5051941;28;19925;-65
2020/12/26 14:32:33;;;;;;;;;;;;;;;;;;5045965;28;19929;-65
2020/12/26 14:34:59;;;;;;;;;;;;;;;;;;5051084;28;19983;-64
2020/12/26 14:37:26;;;;;;;;;;;;;;;;;;5052176;28;19924;-64
2020/12/26 14:39:52;;;;;;;;;;;;;;;;;;5050395;28;19932;-65
2020/12/26 14:42:19;;;;;;;;;;;;;;;;;;5050141;28;19960;-65
2020/12/26 14:44:45;;;;;;;;;;;;;;;;;;5045755;28;19924;-66
2020/12/26 14:47:12;;;;;;;;;;;;;;;;;;5051348;28;19924;-65
2020/12/26 14:49:38;;;;;;;;;;;;;;;;;;5046249;28;19950;-65
2020/12/26 14:52:05;;;;;;;;;;;;;;;;;;5050849;28;20481;-66
2020/12/26 14:54:31;;;;;;;;;;;;;;;;;;5050135;28;20007;-65
2020/12/26 14:56:58;;;;;;;;;;;;;;;;;;5051230;28;20159;-66
2020/12/26 14:59:24;;;;;;;;;;;;;;;;;;5050188;28;19929;-65
2020/12/26 15:01:51;;;;;;;;;;;;;;;;;;5050950;28;19978;-65
2020/12/26 15:04:17;;;;;;;;;;;;;;;;;;5050042;28;20386;-65
2020/12/26 15:06:45;;;;;;;;;;;;;;;;;;5051368;28;19928;-66
2020/12/26 15:09:11;;;;;;;;;;;;;;;;;;5050422;28;19978;-65
2020/12/26 15:11:38;;;;;;;;;;;;;;;;;;5040913;28;19936;-65
2020/12/26 15:14:04;;;;;;;;;;;;;;;;;;5048341;28;19936;-66
2020/12/26 15:16:31;;;;;;;;;;;;;;;;;;5049076;28;19925;-65
2020/12/26 15:19:01;;;;;;;;;;;;;;;;;;5048355;28;19928;-67
2020/12/26 15:21:28;;;;;;;;;;;;;;;;;;5051538;28;19986;-65
2020/12/26 15:23:54;;;;;;;;;;;;;;;;;;5050622;28;19929;-65
2020/12/26 15:26:21;;;;;;;;;;;;;;;;;;5046398;28;19947;-65
2020/12/26 15:28:47;;;;;;;;;;;;;;;;;;5044497;28;19959;-66
2020/12/26 15:31:14;;;;;;;;;;;;;;;;;;5051039;28;19951;-65
2020/12/26 15:33:40;;;;;;;;;;;;;;;;;;5050907;28;20024;-65
2020/12/26 15:36:07;;;;;;;;;;;;;;;;;;5049844;28;19925;-65
2020/12/26 15:38:33;;;;;;;;;;;;;;;;;;5050178;28;19939;-65
2020/12/26 15:41:00;;;;;;;;;;;;;;;;;;5051112;28;19995;-64
2020/12/26 15:43:26;;;;;;;;;;;;;;;;;;5049754;28;19931;-64
2020/12/26 15:45:53;;;;;;;;;;;;;;;;;;5051297;28;20015;-65
2020/12/26 15:48:19;;;;;;;;;;;;;;;;;;5050604;28;20367;-64
2020/12/26 15:50:46;;;;;;;;;;;;;;;;;;5049826;28;19931;-64
2020/12/26 15:53:12;;;;;;;;;;;;;;;;;;5045531;28;20314;-65
2020/12/26 15:55:39;;;;;;;;;;;;;;;;;;5045518;28;19925;-64
2020/12/26 15:58:05;;;;;;;;;;;;;;;;;;5050473;28;19964;-64
2020/12/26 16:00:32;;;;;;;;;;;;;;;;;;5047012;28;20027;-65
2020/12/26 16:02:58;;;;;;;;;;;;;;;;;;5050786;28;20024;-64
2020/12/26 16:05:25;;;;;;;;;;;;;;;;;;5049746;28;19925;-64
2020/12/26 16:07:51;;;;;;;;;;;;;;;;;;5050320;28;19924;-66
2020/12/26 16:10:18;;;;;;;;;;;;;;;;;;5048129;28;19948;-65
2020/12/26 16:12:44;;;;;;;;;;;;;;;;;;5050408;28;19933;-64
2020/12/26 16:15:11;;;;;;;;;;;;;;;;;;5046724;28;20015;-65
2020/12/26 16:17:37;;;;;;;;;;;;;;;;;;5049699;28;19936;-64
2020/12/26 16:20:04;;;;;;;;;;;;;;;;;;5046589;28;20437;-64
2020/12/26 16:22:30;;;;;;;;;;;;;;;;;;5050395;28;20027;-65
2020/12/26 16:24:57;;;;;;;;;;;;;;;;;;5049666;28;20312;-64
2020/12/26 16:27:24;;;;;;;;;;;;;;;;;;5050139;28;19929;-64
2020/12/26 16:29:50;;;;;;;;;;;;;;;;;;5050255;28;19971;-64
2020/12/26 16:32:17;;;;;;;;;;;;;;;;;;5049664;28;19947;-64
2020/12/26 16:34:43;;;;;;;;;;;;;;;;;;5050712;28;20294;-64
2020/12/26 16:37:10;;;;;;;;;;;;;;;;;;5049188;28;19931;-64
2020/12/26 16:39:36;;;;;;;;;;;;;;;;;;5038862;28;19956;-66